Latest Weather Observations for Coolangatta

IDQ60801

Issued at 7:32 am EST Friday 22 October 2021 (issued every 10 minutes, with the page automatically refreshed every 10 minutes)

About weather observations | Map of weather stations | Latest weather observations for QLD | Other Formats
Station Details ID: 040717 Name: COOLANGATTA Lat: -28.17 Lon: 153.51 Height: 4.0 m
Data from the previous 72 hours. | See also: Recent months at Coolangatta

Observations at Coolangatta are collected in the Queensland time zone, which does not include daylight savings during the summer period. Therefore 'Rain since 9am' totals and other values are based on the Queensland time zone.

Date/Time
EST
Temp
°C
App
Temp
°C
Dew
Point
°C
Rel
Hum
%
Delta-T
°C
Wind Press
QNH
hPa
Press
MSL
hPa
Rain since
9am
mm
Dir  Spd
km/h
Gust
km/h
Spd
kts
Gust
kts
22/07:30am 21.4 23.7 18.6 84 1.8 WSW 4 7 2 4 1016.3 1016.3 15.4
22/07:00am 20.6 24.0 19.3 92 0.8 CALM 0 0 0 0 1016.0 1016.0 15.4
22/06:30am 18.8 20.9 18.1 96 0.4 W 4 7 2 4 1016.1 1016.1 15.4
22/06:00am 18.4 21.2 17.9 97 0.3 CALM 0 6 0 3 1015.8 1015.8 15.4
22/05:30am 17.9 19.7 17.3 96 0.4 W 4 6 2 3 1015.3 1015.3 15.4
22/05:00am 17.8 19.5 17.2 96 0.4 W 4 7 2 4 1015.1 1015.1 15.4
22/04:51am 17.8 20.3 17.2 96 0.4 CALM 0 6 0 3 1014.9 1014.9 15.4
22/04:38am 17.9 20.0 17.3 96 0.4 W 2 6 1 3 1014.6 1014.6 15.4
22/04:30am 18.0 20.6 17.4 96 0.4 CALM 0 0 0 0 1014.5 1014.5 15.4
22/04:00am 18.5 20.5 17.9 96 0.4 W 4 6 2 3 1014.4 1014.4 15.4
22/03:30am 18.4 19.8 17.8 96 0.4 W 7 11 4 6 1014.3 1014.3 15.4
22/03:00am 18.3 20.8 17.3 94 0.6 CALM 0 0 0 0 1014.1 1014.1 15.4
22/02:30am 18.3 19.4 17.1 93 0.7 WNW 7 7 4 4 1014.3 1014.3 15.4
22/02:00am 19.0 20.0 17.7 92 0.8 NW 9 9 5 5 1014.4 1014.4 15.4
22/01:56am 19.2 20.3 17.9 92 0.8 NW 9 11 5 6 1014.4 1014.4 15.4
22/01:34am 19.8 19.7 17.9 89 1.2 NW 15 30 8 16 1014.8 1014.8 12.8
22/01:30am 20.1 20.0 17.9 87 1.4 NNW 15 30 8 16 1014.8 1014.8 11.4
22/01:00am 21.0 21.6 18.6 86 1.5 NE 13 17 7 9 1014.9 1014.9 11.2
22/12:30am 20.5 20.7 18.6 89 1.2 ENE 15 19 8 10 1015.1 1015.1 11.2
22/12:18am 20.4 19.7 18.3 88 1.3 ENE 19 26 10 14 1015.2 1015.2 11.0
22/12:00am 19.9 21.9 18.7 93 0.7 SW 6 20 3 11 1015.6 1015.6 9.2
 
Date/Time
EST
Temp
°C
App
Temp
°C
Dew
Point
°C
Rel
Hum
%
Delta-T
°C
Wind Press
QNH
hPa
Press
MSL
hPa
Rain since
9am
mm
Dir  Spd
km/h
Gust
km/h
Spd
kts
Gust
kts
21/11:55pm 19.1 21.1 17.8 92 0.8 WSW 4 7 2 4 1015.6 1015.6 8.8
21/11:30pm 18.9 20.8 17.6 92 0.8 SW 4 7 2 4 1015.7 1015.7 7.6
21/11:00pm 18.7 20.0 17.0 90 1.0 SW 6 9 3 5 1016.0 1016.0 7.6
21/10:30pm 19.2 21.3 17.3 89 1.2 SW 2 7 1 4 1016.1 1016.1 7.6
21/10:00pm 19.3 20.7 17.3 88 1.2 SSW 6 9 3 5 1016.1 1016.1 7.6
21/09:30pm 19.3 21.7 16.9 86 1.5 CALM 0 0 0 0 1016.0 1016.0 7.6
21/09:00pm 20.0 22.1 17.2 84 1.7 SE 2 7 1 4 1015.7 1015.7 7.6
21/08:30pm 19.9 21.2 17.1 84 1.7 SSE 6 7 3 4 1015.5 1015.5 7.6
21/08:00pm 19.9 22.4 17.3 85 1.6 CALM 0 0 0 0 1015.6 1015.6 7.6
21/07:30pm 20.0 21.1 17.2 84 1.7 SE 7 9 4 5 1015.2 1015.2 7.6
21/07:00pm 20.2 21.6 17.8 86 1.5 S 7 9 4 5 1015.1 1015.1 7.6
21/06:30pm 20.1 22.3 17.5 85 1.6 E 2 7 1 4 1014.9 1014.9 7.6
21/06:00pm 20.7 23.4 17.7 83 1.8 CALM 0 0 0 0 1014.4 1014.4 7.6
21/05:30pm 21.8 23.7 16.7 73 3.1 ENE 2 7 1 4 1013.7 1013.7 7.6
21/05:00pm 22.0 22.9 16.5 71 3.3 ENE 7 13 4 7 1013.2 1013.2 7.6
21/04:30pm 21.9 24.3 17.1 74 2.9 CALM 0 0 0 0 1013.1 1013.1 7.6
21/04:00pm 22.1 22.6 15.5 66 3.9 NNE 7 9 4 5 1012.9 1012.9 7.6
21/03:30pm 22.2 22.5 16.0 68 3.7 N 9 15 5 8 1012.8 1012.8 7.4
21/03:00pm 22.2 21.8 15.3 65 4.1 NNE 11 17 6 9 1012.8 1012.8 7.4
21/02:30pm 22.6 22.2 17.1 71 3.4 N 15 19 8 10 1013.0 1013.0 7.4
21/02:00pm 22.2 22.0 16.7 71 3.4 NNE 13 17 7 9 1013.3 1013.3 7.4
21/01:30pm 21.1 20.3 16.1 73 3.0 NE 15 20 8 11 1013.7 1013.7 7.4
21/01:29pm 20.9 19.9 15.7 72 3.1 NE 15 20 8 11 1013.7 1013.7 7.4
21/01:10pm 20.4 18.8 16.6 79 2.3 NE 20 26 11 14 1013.8 1013.8 7.2
21/01:00pm 21.8 19.7 14.7 64 4.2 E 19 24 10 13 1014.1 1014.1 5.0
21/12:30pm 22.2 20.5 14.6 62 4.5 E 17 28 9 15 1014.4 1014.4 5.0
21/12:00pm 21.4 21.2 16.6 74 2.9 ENE 13 19 7 10 1014.9 1014.9 5.0
21/11:32am 20.8 20.9 16.6 77 2.5 ENE 11 19 6 10 1015.5 1015.5 5.0
21/11:30am 20.7 20.8 16.5 77 2.5 E 11 19 6 10 1015.5 1015.5 5.0
21/11:00am 19.3 19.8 16.5 84 1.7 NW 9 17 5 9 1015.8 1015.8 4.8
21/10:56am 19.3 20.1 16.3 83 1.8 WSW 7 17 4 9 1015.8 1015.8 4.8
21/10:32am 19.5 19.9 16.2 81 2.0 SSW 9 13 5 7 1015.9 1015.9 1.6
21/10:30am 19.7 20.1 16.3 81 2.0 SSW 9 13 5 7 1015.9 1015.9 0.4
21/10:26am 19.6 19.9 15.9 79 2.2 SSW 9 13 5 7 1015.8 1015.8 0.2
21/10:23am 19.8 19.8 16.3 80 2.1 S 11 15 6 8 1015.8 1015.8 0.2
21/10:10am 20.4 20.9 16.6 79 2.3 ESE 9 13 5 7 1015.8 1015.8 0.2
21/10:00am 20.1 19.2 15.9 77 2.5 E 15 24 8 13 1015.9 1015.9 0.2
21/09:30am 19.1 17.1 15.0 77 2.4 E 19 26 10 14 1016.0 1016.0 0.2
21/09:13am 19.5 18.5 16.5 83 1.8 E 17 20 9 11 1016.1 1016.1 0.0
21/09:00am 18.8 17.8 15.5 81 1.9 ESE 15 26 8 14 1016.0 1016.0 0.8
21/08:55am 18.6 16.7 15.3 81 1.9 ESE 19 26 10 14 1016.0 1016.0 0.8
21/08:54am 18.6 16.5 15.3 81 1.9 ESE 20 26 11 14 1016.0 1016.0 0.8
21/08:44am 19.6 17.5 15.3 76 2.5 SE 20 26 11 14 1015.7 1015.7 0.2
21/08:30am 19.8 18.3 16.4 81 2.0 SSE 19 22 10 12 1015.6 1015.6 0.2
21/08:24am 19.6 18.4 16.1 80 2.1 SSE 17 22 9 12 1015.5 1015.5 0.2
21/08:14am 19.9 18.9 15.5 76 2.6 S 15 22 8 12 1015.6 1015.6 0.2
21/08:08am 19.8 18.3 15.4 76 2.6 S 17 22 9 12 1015.6 1015.6 0.2
21/08:00am 19.9 18.5 15.5 76 2.6 S 17 20 9 11 1015.6 1015.6 0.2
21/07:53am 19.9 18.6 15.7 77 2.5 S 17 20 9 11 1015.5 1015.5 0.2
21/07:30am 18.8 19.1 16.0 84 1.7 SSE 9 13 5 7 1015.6 1015.6 0.2
21/07:00am 18.5 18.8 15.9 85 1.5 SSE 9 13 5 7 1015.3 1015.3 0.2
21/06:30am 18.1 18.8 16.1 88 1.2 S 7 9 4 5 1014.8 1014.8 0.2
21/06:00am 17.8 18.6 15.8 88 1.2 S 6 9 3 5 1014.8 1014.8 0.2
21/05:30am 17.5 17.9 15.3 87 1.3 S 7 9 4 5 1014.5 1014.5 0.2
21/05:00am 17.2 17.4 14.8 86 1.4 S 7 11 4 6 1013.9 1013.9 0.2
21/04:30am 17.8 17.8 15.1 84 1.6 SW 9 11 5 6 1014.2 1014.2 0.2
21/04:00am 17.4 16.9 14.9 85 1.4 SW 11 17 6 9 1014.1 1014.1 0.2
21/03:30am 16.8 16.5 14.3 85 1.4 SSW 9 15 5 8 1013.9 1013.9 0.2
21/03:00am 17.1 16.1 14.7 86 1.4 SSE 13 20 7 11 1014.1 1014.1 0.2
21/02:30am 17.3 16.5 14.0 81 1.9 SSW 11 17 6 9 1014.3 1014.3 0.2
21/02:00am 17.7 16.6 14.4 81 1.9 SSW 13 20 7 11 1014.8 1014.8 0.2
21/01:30am 17.7 16.7 14.6 82 1.8 SSW 13 19 7 10 1014.7 1014.7 0.2
21/01:00am 18.0 16.5 14.1 78 2.2 SW 15 20 8 11 1015.2 1015.2 0.2
21/12:30am 17.9 16.0 14.2 79 2.1 SSW 17 24 9 13 1015.3 1015.3 0.2
21/12:00am 17.9 15.6 14.0 78 2.2 S 19 24 10 13 1015.2 1015.2 0.2
 
Date/Time
EST
Temp
°C
App
Temp
°C
Dew
Point
°C
Rel
Hum
%
Delta-T
°C
Wind Press
QNH
hPa
Press
MSL
hPa
Rain since
9am
mm
Dir  Spd
km/h
Gust
km/h
Spd
kts
Gust
kts
20/11:30pm 18.1 16.1 14.0 77 2.3 SSW 17 24 9 13 1015.5 1015.5 0.2
20/11:00pm 18.2 15.9 14.7 80 2.0 SSE 20 28 11 15 1015.2 1015.2 0.2
20/10:30pm 18.8 16.5 14.1 74 2.7 S 19 28 10 15 1016.0 1016.0 0.2
20/10:00pm 19.9 18.5 14.5 71 3.1 S 15 24 8 13 1015.5 1015.5 0.2
20/09:30pm 20.2 18.8 15.6 75 2.7 SW 17 24 9 13 1015.4 1015.4 0.2
20/09:00pm 20.0 20.5 16.6 81 2.1 W 9 11 5 6 1014.2 1014.2 0.2
20/08:30pm 21.1 19.8 17.3 79 2.3 NNW 20 26 11 14 1014.0 1014.0 0.2
20/08:00pm 21.3 20.4 17.7 80 2.2 NNE 19 22 10 12 1013.2 1013.2 0.2
20/07:30pm 20.9 20.0 17.7 82 2.0 N 19 24 10 13 1013.1 1013.1 0.2
20/07:00pm 21.2 21.5 17.8 81 2.1 NNE 13 19 7 10 1013.8 1013.8 0.0
20/06:30pm 21.3 22.4 16.7 75 2.8 SSE 6 7 3 4 1014.7 1014.7 0.0
20/06:00pm 21.3 21.7 16.3 73 3.0 E 9 13 5 7 1014.2 1014.2 0.0
20/05:30pm 21.9 20.9 16.6 72 3.2 NNE 17 24 9 13 1013.4 1013.4 0.0
20/05:00pm 22.2 21.2 16.5 70 3.5 NE 17 22 9 12 1012.9 1012.9 0.0
20/04:30pm 22.3 21.0 16.8 71 3.4 NNE 19 22 10 12 1013.1 1013.1 0.0
20/04:00pm 22.6 21.1 16.2 67 3.9 NNE 19 24 10 13 1012.7 1012.7 0.0
20/03:30pm 23.0 21.3 16.3 66 4.1 NE 20 28 11 15 1012.4 1012.3 0.0
20/03:00pm 24.0 22.0 16.5 63 4.6 NE 22 28 12 15 1012.1 1012.0 0.0
20/02:30pm 23.8 22.1 16.3 63 4.6 NE 20 26 11 14 1012.7 1012.7 0.0
20/02:00pm 23.6 22.9 17.3 67 3.9 ENE 17 22 9 12 1013.2 1013.2 0.0
20/01:30pm 22.5 21.2 16.8 70 3.5 ENE 19 26 10 14 1013.2 1013.2 0.0
20/01:00pm 23.8 22.0 16.1 62 4.7 E 20 28 11 15 1013.4 1013.4 0.0
20/12:30pm 24.0 22.5 16.8 64 4.4 ENE 20 26 11 14 1013.5 1013.5 0.0
20/12:00pm 23.9 21.8 15.1 58 5.3 ENE 20 26 11 14 1013.7 1013.7 0.0
20/11:30am 24.2 22.2 14.0 53 6.0 E 17 24 9 13 1014.0 1014.0 0.0
20/11:00am 24.7 22.4 13.0 48 6.8 E 17 24 9 13 1014.3 1014.3 0.0
20/10:30am 25.1 24.1 14.6 52 6.3 E 13 20 7 11 1014.8 1014.8 0.0
20/10:00am 24.7 24.3 14.2 52 6.2 ESE 9 13 5 7 1015.1 1015.1 0.0
20/09:30am 23.1 22.3 14.1 57 5.3 NE 11 15 6 8 1015.6 1015.6 0.0
20/09:00am 23.0 22.8 14.8 60 4.9 SE 9 15 5 8 1015.9 1015.9 0.8
20/08:30am 22.3 22.0 14.4 61 4.6 SE 9 15 5 8 1016.5 1016.5 0.8
20/08:00am 21.6 21.7 15.4 68 3.7 S 9 17 5 9 1016.4 1016.4 0.8
20/07:30am 20.3 20.8 14.9 71 3.2 SW 6 11 3 6 1016.5 1016.5 0.8
20/07:00am 19.1 20.2 14.6 75 2.6 S 2 6 1 3 1016.5 1016.5 0.8
20/06:30am 17.7 19.2 14.6 82 1.8 CALM 0 0 0 0 1016.2 1016.2 0.8
20/06:00am 16.8 17.1 15.0 89 1.0 S 7 11 4 6 1015.5 1015.5 0.8
20/05:30am 15.8 15.7 13.8 88 1.1 SSE 7 9 4 5 1015.0 1015.0 0.8
20/05:00am 15.9 14.5 14.4 91 0.9 S 15 19 8 10 1014.7 1014.7 0.6
20/04:30am 15.1 14.8 14.5 96 0.3 S 9 15 5 8 1014.1 1014.1 0.6
20/04:02am 14.4 13.8 13.6 95 0.4 S 9 13 5 7 1013.9 1013.9 0.6
20/04:00am 14.4 13.8 13.4 94 0.6 S 9 11 5 6 1013.9 1013.9 0.6
20/03:48am 14.7 15.1 13.7 94 0.6 S 4 9 2 5 1013.8 1013.8 0.6
20/03:30am 14.6 15.7 13.5 93 0.6 CALM 0 0 0 0 1013.5 1013.5 0.6
20/03:00am 16.0 16.5 15.0 94 0.6 S 6 11 3 6 1013.3 1013.3 0.6
20/02:30am 15.7 15.9 14.7 94 0.6 W 7 9 4 5 1012.8 1012.8 0.6
20/02:00am 16.4 16.5 15.6 95 0.5 WSW 9 11 5 6 1013.0 1013.0 0.6
20/01:30am 16.6 16.8 15.8 95 0.5 NW 9 11 5 6 1013.0 1013.0 0.6
20/01:00am 16.7 16.9 15.7 94 0.6 NNW 9 11 5 6 1013.4 1013.4 0.6
20/12:30am 16.6 17.3 15.5 93 0.6 WSW 6 11 3 6 1014.2 1014.2 0.6
20/12:00am 17.3 18.4 15.6 90 1.0 SW 4 9 2 5 1014.8 1014.8 0.6
 
Date/Time
EST
Temp
°C
App
Temp
°C
Dew
Point
°C
Rel
Hum
%
Delta-T
°C
Wind Press
QNH
hPa
Press
MSL
hPa
Rain since
9am
mm
Dir  Spd
km/h
Gust
km/h
Spd
kts
Gust
kts
19/11:30pm 17.8 18.0 15.8 88 1.2 SSW 9 13 5 7 1015.3 1015.3 0.6
19/11:00pm 18.7 18.2 15.9 84 1.7 SSW 13 19 7 10 1016.4 1016.4 0.2
19/10:30pm 17.9 18.0 16.4 91 0.9 SW 11 15 6 8 1016.6 1016.6 0.2
19/10:00pm 17.5 17.5 16.2 92 0.8 SW 11 13 6 7 1015.8 1015.8 0.2
19/09:30pm 17.7 17.8 16.6 93 0.7 WSW 11 13 6 7 1015.6 1015.6 0.2
19/09:00pm 17.7 17.7 16.2 91 0.9 WSW 11 13 6 7 1015.4 1015.4 0.2
19/08:30pm 17.6 17.9 15.9 90 1.0 SSW 9 11 5 6 1015.2 1015.2 0.2
19/08:00pm 18.2 18.7 16.5 90 1.0 WSW 9 11 5 6 1014.7 1014.7 0.2
19/07:30pm 18.7 19.4 17.0 90 1.0 S 9 11 5 6 1014.3 1014.3 0.2
19/07:00pm 18.5 20.6 16.3 87 1.3 CALM 0 0 0 0 1014.4 1014.4 0.2
19/06:30pm 19.2 19.9 15.7 80 2.1 SE 6 7 3 4 1014.1 1014.1 0.2
19/06:00pm 20.5 21.9 15.3 72 3.1 ESE 2 7 1 4 1014.0 1014.0 0.2
19/05:30pm 20.9 21.0 15.4 71 3.3 ESE 9 13 5 7 1013.6 1013.6 0.2
19/05:00pm 21.0 21.1 15.5 71 3.3 ESE 9 13 5 7 1013.2 1013.2 0.2
19/04:30pm 21.5 20.0 15.3 68 3.7 ESE 17 20 9 11 1013.0 1013.0 0.2
19/04:00pm 22.7 21.3 15.5 64 4.3 E 17 22 9 12 1013.0 1013.0 0.2
19/03:30pm 22.7 21.7 16.7 69 3.7 NE 17 22 9 12 1013.1 1013.1 0.2
19/03:00pm 22.4 21.2 16.2 68 3.8 NE 17 20 9 11 1013.3 1013.3 0.2
19/02:30pm 22.6 21.1 15.2 63 4.4 NE 17 20 9 11 1013.4 1013.4 0.2
19/02:00pm 22.9 21.8 16.4 66 4.0 NE 17 20 9 11 1013.7 1013.7 0.2
19/01:30pm 22.9 21.8 16.4 66 4.0 ENE 17 22 9 12 1013.7 1013.7 0.2
19/01:00pm 22.6 20.9 16.2 67 3.9 ENE 20 26 11 14 1014.0 1014.0 0.2
19/12:30pm 23.1 21.2 15.7 63 4.5 ENE 20 24 11 13 1014.2 1014.2 0.2
19/12:00pm 23.0 21.0 15.6 63 4.4 NE 20 26 11 14 1014.5 1014.5 0.2
19/11:30am 22.3 20.3 15.6 66 4.0 NE 20 24 11 13 1015.0 1015.0 0.2
19/11:00am 22.2 20.5 15.8 67 3.8 NE 19 22 10 12 1015.3 1015.3 0.2
19/10:30am 23.0 23.1 15.6 63 4.4 S 9 13 5 7 1015.5 1015.5 0.2
19/10:00am 22.2 21.8 15.3 65 4.1 SSE 11 17 6 9 1016.1 1016.1 0.2
19/09:30am 21.7 21.5 15.8 69 3.5 SSE 11 15 6 8 1016.6 1016.6 0.0
19/09:00am 21.3 21.1 15.6 70 3.4 S 11 15 6 8 1016.7 1016.7 24.4
19/08:30am 19.9 19.2 15.3 75 2.7 SSW 13 17 7 9 1016.9 1016.9 24.4
19/08:00am 19.7 18.8 14.9 74 2.8 SW 13 17 7 9 1016.9 1016.9 24.4

Other formats

Comma delimited format used in spreadsheet applications
http://www.bom.gov.au/fwo/IDQ60801/IDQ60801.94592.axf

JavaScript Object Notation format (JSON) in row-major order
http://www.bom.gov.au/fwo/IDQ60801/IDQ60801.94592.json

Data quality

Most of these data are generated automatically and are frequently updated. Quality checks on data are not normally performed. It is possible for incorrect values to appear. Refer to information at About Latest Weather Observations and please check the disclaimer before using these data.